Time;durP1;ratioP1;P1;durP2;ratioP2;P2;SDS_P1;SDS_P2;PMS_P1;PMS_P2;Temp;Humidity;BMP_temperature;BMP_pressure;BME280_temperature;BME280_humidity;BME280_pressure;Samples;Min_cycle;Max_cycle;Signal;HPM_P1;HPM_P2
2022/09/30 00:01:00;;;;;;;8.25;6.18;;;;;;;13.02;58.32;100490.50;5051124;27;96875;-67
2022/09/30 00:03:27;;;;;;;7.18;6.47;;;;;;;12.94;58.70;100491.81;5050923;27;96873;-68
2022/09/30 00:05:58;;;;;;;7.43;6.43;;;;;;;13.07;58.38;100492.91;5050709;27;98964;-68
2022/09/30 00:08:25;;;;;;;9.93;6.68;;;;;;;13.23;57.80;100487.75;5051601;27;98099;-67
2022/09/30 00:11:01;;;;;;;8.45;6.68;;;;;;;13.24;57.59;100489.47;5050371;27;96866;-67
2022/09/30 00:13:28;;;;;;;8.57;5.78;;;;;;;13.14;57.38;100492.56;5049831;27;97017;-67
2022/09/30 00:15:54;;;;;;;10.13;7.00;;;;;;;13.12;57.43;100491.81;5044147;27;99320;-67
2022/09/30 00:18:21;;;;;;;10.38;7.07;;;;;;;13.30;57.16;100492.66;5052713;27;98901;-67
2022/09/30 00:20:49;;;;;;;11.75;7.28;;;;;;;13.08;57.47;100498.16;5051886;27;97093;-67
2022/09/30 00:23:15;;;;;;;9.63;7.38;;;;;;;12.92;57.79;100501.66;5047045;27;97185;-67
2022/09/30 00:25:43;;;;;;;9.75;7.32;;;;;;;12.68;58.78;100503.66;5050295;27;98258;-67
2022/09/30 00:28:09;;;;;;;9.13;6.68;;;;;;;12.80;58.51;100497.78;5051737;27;100629;-67
2022/09/30 00:30:36;;;;;;;10.75;7.28;;;;;;;12.79;58.75;100512.00;5051705;27;96835;-68
2022/09/30 00:33:02;;;;;;;10.35;7.50;;;;;;;12.81;58.39;100510.09;5051951;27;97149;-68
2022/09/30 00:35:28;;;;;;;10.68;6.63;;;;;;;12.73;58.69;100502.50;5050850;27;99081;-69
2022/09/30 00:37:55;;;;;;;10.35;7.38;;;;;;;12.69;58.63;100500.09;5049833;27;100003;-69
2022/09/30 00:40:21;;;;;;;10.05;7.13;;;;;;;12.72;58.55;100505.25;5049849;27;97678;-69
2022/09/30 00:42:49;;;;;;;9.02;7.47;;;;;;;12.76;58.29;100506.81;5049498;27;99735;-69
2022/09/30 00:45:17;;;;;;;11.48;7.07;;;;;;;12.71;58.60;100498.25;5050767;27;98088;-69
2022/09/30 00:47:49;;;;;;;10.82;7.00;;;;;;;12.63;58.59;100495.09;5051278;27;98650;-68
2022/09/30 00:50:34;;;;;;;11.00;7.45;;;;;;;12.79;58.18;100506.69;5049694;27;98459;-67
2022/09/30 00:53:06;;;;;;;10.02;6.93;;;;;;;12.79;57.96;100509.34;5047577;27;97867;-68
2022/09/30 00:55:41;;;;;;;11.55;7.65;;;;;;;12.88;57.75;100508.88;5048672;27;99294;-68
2022/09/30 00:58:12;;;;;;;10.45;7.38;;;;;;;12.98;57.52;100507.50;5051405;27;99444;-67
2022/09/30 01:00:40;;;;;;;12.32;7.68;;;;;;;12.90;57.55;100507.03;5050987;27;97229;-68
2022/09/30 01:03:07;;;;;;;10.30;6.90;;;;;;;12.71;57.92;100509.72;5049807;27;98466;-69
2022/09/30 01:05:36;;;;;;;10.95;7.20;;;;;;;12.60;58.47;100509.34;5050717;27;99141;-68
2022/09/30 01:08:08;;;;;;;12.10;7.47;;;;;;;12.54;58.89;100506.13;5049322;27;97817;-68
2022/09/30 01:10:34;;;;;;;11.82;7.45;;;;;;;12.50;59.51;100509.84;5047232;27;97162;-68
2022/09/30 01:13:01;;;;;;;11.02;8.13;;;;;;;12.47;59.59;100510.03;5051148;27;96963;-68
2022/09/30 01:15:41;;;;;;;11.98;7.75;;;;;;;12.55;59.34;100514.00;5050315;27;99036;-67
2022/09/30 01:18:18;;;;;;;12.38;7.93;;;;;;;12.53;59.45;100513.25;5051748;27;97682;-67
2022/09/30 01:21:03;;;;;;;12.10;7.40;;;;;;;12.36;59.99;100516.66;5050212;27;98513;-68
2022/09/30 01:23:56;;;;;;;10.93;8.13;;;;;;;12.38;59.85;100530.69;5045432;27;97210;-68
2022/09/30 01:26:48;;;;;;;12.13;7.75;;;;;;;12.47;59.64;100528.56;5048259;27;101194;-68
2022/09/30 01:29:48;;;;;;;11.27;8.32;;;;;;;12.58;59.07;100524.47;5055311;27;98272;-67
2022/09/30 01:32:25;;;;;;;10.90;8.02;;;;;;;12.81;58.37;100523.38;5053344;27;96834;-67
2022/09/30 01:35:03;;;;;;;12.25;8.38;;;;;;;12.94;57.98;100526.28;5055633;27;96862;-69
2022/09/30 01:37:43;;;;;;;12.07;7.72;;;;;;;12.64;58.16;100524.19;5050424;27;97729;-68
2022/09/30 01:40:22;;;;;;;13.07;8.38;;;;;;;12.52;58.81;100518.59;5052892;27;97816;-68
2022/09/30 01:42:55;;;;;;;10.00;7.68;;;;;;;12.85;57.91;100516.13;5048165;27;97350;-69
2022/09/30 01:45:32;;;;;;;10.38;8.35;;;;;;;12.91;57.45;100515.84;5051673;27;97358;-69
2022/09/30 01:48:03;;;;;;;;;;;;;;;12.90;57.56;100516.75;5054544;27;101185;-69
2022/09/30 01:50:36;;;;;;;12.35;7.40;;;;;;;13.01;56.92;100517.94;5053336;27;98012;-68
2022/09/30 01:53:08;;;;;;;8.65;6.90;;;;;;;12.83;57.31;100525.94;5053282;27;96930;-70
2022/09/30 01:55:39;;;;;;;12.85;8.30;;;;;;;12.63;58.02;100522.47;5052494;27;97200;-68
2022/09/30 01:58:11;;;;;;;12.73;7.68;;;;;;;12.75;57.47;100523.66;5054038;27;98936;-69
2022/09/30 02:00:42;;;;;;;13.98;7.53;;;;;;;12.70;57.65;100523.88;5053547;27;98800;-67
2022/09/30 02:03:16;;;;;;;10.65;7.90;;;;;;;12.61;58.03;100524.31;5053793;27;96807;-70
2022/09/30 02:05:53;;;;;;;14.95;7.68;;;;;;;12.91;57.17;100511.41;5050311;27;97120;-69
2022/09/30 02:08:26;;;;;;;13.57;7.32;;;;;;;12.49;58.23;100513.44;5048488;27;99094;-68
2022/09/30 02:10:58;;;;;;;11.75;7.20;;;;;;;12.72;57.77;100510.56;5050549;27;98767;-67
2022/09/30 02:13:29;;;;;;;9.90;6.93;;;;;;;12.51;58.08;100516.88;5053815;27;96786;-68
2022/09/30 02:16:11;;;;;;;9.80;6.93;;;;;;;12.48;57.99;100522.31;5052612;27;97261;-67
2022/09/30 02:18:45;;;;;;;11.20;7.85;;;;;;;12.52;58.15;100523.91;5053419;27;98875;-68
2022/09/30 02:21:17;;;;;;;11.13;7.53;;;;;;;12.48;58.18;100523.16;5054852;27;98984;-68
2022/09/30 02:23:47;;;;;;;13.98;7.75;;;;;;;12.37;58.85;100526.34;5050708;27;96917;-67
2022/09/30 02:26:18;;;;;;;15.77;7.97;;;;;;;12.37;59.01;100523.69;5049399;27;97857;-66
2022/09/30 02:28:50;;;;;;;10.15;7.68;;;;;;;12.49;58.97;100526.69;5051782;27;100477;-67
2022/09/30 02:31:21;;;;;;;10.98;8.02;;;;;;;12.24;59.63;100529.63;5051427;27;99400;-67
2022/09/30 02:33:54;;;;;;;14.20;8.10;;;;;;;12.32;59.59;100533.63;5051166;27;96950;-68
2022/09/30 02:36:27;;;;;;;11.32;7.82;;;;;;;12.30;59.71;100527.53;5048839;27;96852;-67
2022/09/30 02:39:00;;;;;;;11.50;7.68;;;;;;;12.39;58.89;100534.22;5047741;27;98907;-68
2022/09/30 02:41:34;;;;;;;12.32;7.68;;;;;;;12.21;59.34;100527.94;5051528;27;98879;-67
2022/09/30 02:44:03;;;;;;;13.02;8.23;;;;;;;12.27;58.95;100537.44;5050435;27;96949;-68
2022/09/30 02:46:41;;;;;;;12.18;7.55;;;;;;;12.25;59.15;100542.78;5048885;27;98256;-68
2022/09/30 02:49:21;;;;;;;9.43;7.03;;;;;;;12.69;57.71;100539.84;5051078;27;99111;-68
2022/09/30 02:52:02;;;;;;;11.68;8.18;;;;;;;12.87;57.35;100538.97;5048847;27;99208;-67
2022/09/30 02:54:34;;;;;;;10.93;7.50;;;;;;;12.74;57.47;100546.66;5048394;27;96762;-67
2022/09/30 02:57:14;;;;;;;13.65;7.55;;;;;;;12.76;57.16;100543.94;5051682;27;96867;-67
2022/09/30 02:59:41;;;;;;;10.80;7.20;;;;;;;12.45;58.05;100543.66;5052280;27;99265;-69
2022/09/30 03:02:07;;;;;;;14.13;7.22;;;;;;;12.37;58.11;100552.81;5048037;27;99182;-68
2022/09/30 03:04:40;;;;;;;12.50;7.50;;;;;;;12.17;58.98;100552.88;5051945;27;96944;-68
2022/09/30 03:07:06;;;;;;;11.48;7.72;;;;;;;12.32;58.73;100556.63;5050484;27;96817;-68
2022/09/30 03:09:36;;;;;;;10.32;6.82;;;;;;;12.06;59.43;100560.44;5045948;27;99354;-68
2022/09/30 03:12:12;;;;;;;11.52;7.07;;;;;;;12.03;59.79;100552.63;5051119;27;98715;-67
2022/09/30 03:14:54;;;;;;;12.27;7.10;;;;;;;12.03;59.75;100549.97;5049685;27;97638;-68
2022/09/30 03:17:32;;;;;;;10.55;7.38;;;;;;;12.16;59.17;100553.78;5049614;27;96843;-68
2022/09/30 03:20:31;;;;;;;11.70;7.63;;;;;;;12.27;58.63;100550.69;5049745;27;98997;-69
2022/09/30 03:23:36;;;;;;;12.82;7.35;;;;;;;12.25;58.63;100549.88;5012952;27;1067661;-69
2022/09/30 03:26:15;;;;;;;17.38;7.90;;;;;;;12.22;58.51;100563.25;5050292;27;96969;-67
2022/09/30 03:28:52;;;;;;;11.80;7.50;;;;;;;12.26;58.22;100563.06;5050642;27;97317;-68
2022/09/30 03:31:28;;;;;;;10.90;7.18;;;;;;;12.55;57.62;100552.91;5051889;27;99137;-68
2022/09/30 03:33:58;;;;;;;;;;;;;;;12.55;57.62;100563.50;5050767;27;98061;-70
2022/09/30 03:36:38;;;;;;;9.75;7.18;;;;;;;12.64;57.05;100560.44;5052654;27;98090;-68
2022/09/30 03:39:16;;;;;;;12.52;7.07;;;;;;;12.63;57.36;100569.31;5050641;27;96837;-68
2022/09/30 03:41:49;;;;;;;10.60;7.15;;;;;;;12.28;58.08;100570.91;5052480;27;99328;-67
2022/09/30 03:44:24;;;;;;;12.05;7.10;;;;;;;12.07;58.69;100572.75;5050274;27;98848;-69
2022/09/30 03:46:54;;;;;;;13.43;7.35;;;;;;;12.22;58.57;100572.06;5053179;27;97709;-68
2022/09/30 03:49:24;;;;;;;9.00;7.15;;;;;;;12.09;58.92;100586.78;5051212;27;96885;-69
2022/09/30 03:51:52;;;;;;;10.45;6.60;;;;;;;12.00;59.10;100595.16;5051790;27;102282;-68
2022/09/30 03:54:19;;;;;;;9.57;7.10;;;;;;;12.12;59.14;100594.59;5051545;27;98894;-68
2022/09/30 03:56:49;;;;;;;9.57;6.85;;;;;;;12.22;59.08;100590.59;5051079;27;97114;-68
2022/09/30 03:59:23;;;;;;;13.07;7.53;;;;;;;12.36;58.57;100587.34;5053962;27;96724;-67
2022/09/30 04:01:53;;;;;;;7.53;6.45;;;;;;;12.08;58.89;100587.69;5050953;27;100013;-68
2022/09/30 04:04:20;;;;;;;9.55;6.70;;;;;;;12.16;58.69;100595.31;5052157;27;98764;-68
2022/09/30 04:06:47;;;;;;;8.38;7.05;;;;;;;12.08;58.81;100592.16;5052251;27;97192;-68
2022/09/30 04:09:15;;;;;;;10.27;7.10;;;;;;;12.14;58.95;100592.72;5051560;27;96905;-67
2022/09/30 04:11:43;;;;;;;9.60;7.00;;;;;;;12.17;59.05;100595.25;5052427;27;99342;-68
2022/09/30 04:14:11;;;;;;;12.75;6.88;;;;;;;11.96;59.47;100594.41;5048679;27;101526;-69
2022/09/30 04:16:37;;;;;;;10.65;7.65;;;;;;;12.07;58.91;100601.91;5050853;27;98075;-68
2022/09/30 04:19:04;;;;;;;11.70;6.97;;;;;;;12.13;58.80;100604.28;5052438;27;96799;-68
2022/09/30 04:21:30;;;;;;;9.55;6.80;;;;;;;11.89;59.79;100608.84;5049578;27;99150;-68
2022/09/30 04:23:59;;;;;;;9.88;6.55;;;;;;;11.77;60.29;100612.00;5051436;27;97681;-67
2022/09/30 04:26:28;;;;;;;10.55;7.13;;;;;;;11.88;60.10;100608.91;5049738;27;97469;-68
2022/09/30 04:28:57;;;;;;;9.23;7.22;;;;;;;11.62;60.47;100619.72;5052898;27;96939;-68
2022/09/30 04:31:23;;;;;;;12.20;7.07;;;;;;;11.99;59.58;100622.56;5051373;27;99001;-68
2022/09/30 04:33:50;;;;;;;9.88;7.20;;;;;;;12.28;58.44;100622.13;5051546;27;99003;-67
2022/09/30 04:36:20;;;;;;;9.98;6.97;;;;;;;11.97;59.10;100619.97;5050278;27;96835;-68
2022/09/30 04:38:47;;;;;;;12.73;7.13;;;;;;;12.23;58.43;100615.31;5046469;27;98735;-68
2022/09/30 04:41:16;;;;;;;10.20;7.38;;;;;;;12.04;58.41;100625.84;5050466;27;99517;-69
2022/09/30 04:43:46;;;;;;;9.80;6.82;;;;;;;12.21;58.18;100625.97;5050324;27;98870;-68
2022/09/30 04:46:13;;;;;;;11.10;7.20;;;;;;;11.92;58.52;100636.97;5052172;27;96744;-70
2022/09/30 04:48:39;;;;;;;9.80;6.97;;;;;;;12.26;58.13;100631.09;5051154;27;96955;-68
2022/09/30 04:51:05;;;;;;;9.55;7.40;;;;;;;12.36;57.67;100641.19;5051885;27;99022;-68
2022/09/30 04:53:32;;;;;;;14.90;8.05;;;;;;;12.55;57.36;100640.38;5048586;27;99474;-68
2022/09/30 04:56:02;;;;;;;13.85;7.38;;;;;;;12.40;57.26;100641.06;5051315;27;97311;-68
2022/09/30 04:58:29;;;;;;;13.10;7.55;;;;;;;12.31;57.47;100648.50;5049936;27;96976;-69
2022/09/30 05:01:05;;;;;;;10.20;7.20;;;;;;;12.25;57.91;100654.06;5049609;27;99023;-68
2022/09/30 05:03:32;;;;;;;12.82;7.28;;;;;;;12.07;58.55;100654.88;5049964;27;98917;-68
2022/09/30 05:05:59;;;;;;;24.95;10.98;;;;;;;12.10;58.11;100665.31;5049811;27;96896;-67
2022/09/30 05:08:27;;;;;;;14.20;8.25;;;;;;;12.17;58.15;100661.47;5047737;27;97486;-68
2022/09/30 05:10:56;;;;;;;27.02;13.13;;;;;;;12.18;58.15;100663.19;5049952;27;98932;-69
2022/09/30 05:13:25;;;;;;;15.45;8.52;;;;;;;12.01;58.50;100663.06;5050874;27;99372;-69
2022/09/30 05:15:51;;;;;;;12.55;7.80;;;;;;;12.25;57.91;100659.38;5050744;27;96724;-69
2022/09/30 05:18:22;;;;;;;11.40;6.95;;;;;;;12.12;58.46;100668.78;5044521;27;97013;-68
2022/09/30 05:20:54;;;;;;;9.90;7.20;;;;;;;12.31;58.01;100669.69;5043605;27;100104;-68
2022/09/30 05:23:21;;;;;;;11.65;7.53;;;;;;;12.03;58.61;100670.94;5046576;27;99105;-68
2022/09/30 05:25:48;;;;;;;9.43;7.07;;;;;;;11.90;59.14;100674.09;5050991;27;96797;-67
2022/09/30 05:28:14;;;;;;;12.20;7.85;;;;;;;12.01;58.81;100676.31;5046194;27;97621;-67
2022/09/30 05:30:42;;;;;;;11.48;7.05;;;;;;;12.09;58.49;100684.78;5044986;27;99129;-68
2022/09/30 05:33:09;;;;;;;10.45;6.78;;;;;;;12.05;58.69;100680.53;5048442;27;99202;-67
2022/09/30 05:35:37;;;;;;;13.68;7.32;;;;;;;12.20;58.64;100682.56;5041495;27;96711;-68
2022/09/30 05:38:09;;;;;;;10.57;7.10;;;;;;;12.35;58.03;100681.88;5048051;27;96855;-68
2022/09/30 05:40:39;;;;;;;15.68;7.53;;;;;;;12.35;57.80;100678.34;5046817;27;98948;-68
2022/09/30 05:43:06;;;;;;;14.07;7.47;;;;;;;12.48;57.64;100679.53;5039720;27;98861;-68
2022/09/30 05:45:34;;;;;;;16.63;7.57;;;;;;;12.66;56.92;100684.03;5049217;27;96888;-68
2022/09/30 05:48:01;;;;;;;15.02;8.40;;;;;;;12.60;57.23;100678.97;5048265;27;96818;-67
2022/09/30 05:50:27;;;;;;;10.60;7.60;;;;;;;12.60;57.09;100692.22;5045633;27;99351;-67
2022/09/30 05:52:56;;;;;;;12.65;7.55;;;;;;;12.93;56.25;100691.66;5050484;27;99079;-68
2022/09/30 05:55:23;;;;;;;12.25;7.55;;;;;;;12.99;55.83;100696.69;5049105;27;96897;-68
2022/09/30 05:57:51;;;;;;;11.52;7.88;;;;;;;12.91;56.16;100696.16;5051678;27;96961;-68
2022/09/30 06:00:18;;;;;;;18.75;7.70;;;;;;;12.96;56.19;100699.47;5042045;27;100108;-67
2022/09/30 06:02:45;;;;;;;13.40;8.32;;;;;;;12.84;56.53;100700.91;5046876;27;99395;-68
2022/09/30 06:05:18;;;;;;;15.65;8.35;;;;;;;12.95;56.48;100703.91;5046982;27;98427;-68
2022/09/30 06:07:44;;;;;;;10.82;7.53;;;;;;;13.39;55.40;100715.13;5048066;27;97263;-69
2022/09/30 06:10:13;;;;;;;15.15;7.60;;;;;;;13.28;55.50;100712.13;5047649;27;97892;-68
2022/09/30 06:12:44;;;;;;;17.85;8.40;;;;;;;13.07;56.04;100710.44;5044119;27;99165;-69
2022/09/30 06:15:11;;;;;;;12.63;7.82;;;;;;;13.03;55.86;100719.47;5052554;27;97220;-68
2022/09/30 06:17:41;;;;;;;11.10;7.43;;;;;;;13.29;55.63;100713.00;5053349;27;97145;-68
2022/09/30 06:20:09;;;;;;;12.77;8.57;;;;;;;13.53;55.09;100717.13;5053907;27;99225;-69
2022/09/30 06:22:35;;;;;;;12.45;7.45;;;;;;;13.50;55.11;100717.28;5053544;27;99269;-68
2022/09/30 06:25:06;;;;;;;21.25;11.93;;;;;;;13.59;54.82;100722.13;5054376;27;96982;-68
2022/09/30 06:27:34;;;;;;;13.43;8.35;;;;;;;13.48;55.28;100725.31;5054848;27;97355;-68
2022/09/30 06:30:00;;;;;;;16.90;9.35;;;;;;;13.68;54.64;100721.69;5054530;27;99327;-68
2022/09/30 06:32:29;;;;;;;13.40;8.43;;;;;;;13.92;54.03;100730.25;5053611;27;98812;-67
2022/09/30 06:34:55;;;;;;;14.25;8.63;;;;;;;13.74;54.46;100723.19;5054562;27;97001;-68
2022/09/30 06:37:28;;;;;;;14.65;8.43;;;;;;;13.88;54.04;100734.88;5055172;27;97399;-71
2022/09/30 06:39:56;;;;;;;16.15;8.73;;;;;;;13.88;53.96;100737.53;5054295;27;99380;-70
2022/09/30 06:42:22;;;;;;;17.33;8.75;;;;;;;13.72;54.54;100735.72;5054161;27;99607;-70
2022/09/30 06:44:50;;;;;;;12.73;8.75;;;;;;;13.87;54.30;100738.47;5053856;27;96999;-73
2022/09/30 06:47:17;;;;;;;13.50;7.53;;;;;;;13.94;53.99;100745.19;5052694;27;96861;-69
2022/09/30 06:49:44;;;;;;;12.88;8.70;;;;;;;13.79;53.95;100739.75;5054458;27;99057;-70
2022/09/30 06:52:10;;;;;;;17.42;8.73;;;;;;;14.06;53.56;100749.03;5054983;27;98948;-70
2022/09/30 06:54:37;;;;;;;13.25;9.10;;;;;;;14.03;53.80;100746.53;5048895;27;96722;-71
2022/09/30 06:57:03;;;;;;;16.05;9.95;;;;;;;13.93;53.90;100761.19;5054311;27;96872;-70
2022/09/30 06:59:32;;;;;;;11.52;8.35;;;;;;;14.23;53.41;100761.50;5054393;27;97340;-70
2022/09/30 07:02:02;;;;;;;18.08;8.85;;;;;;;14.29;53.14;100762.03;5054642;27;101318;-69
2022/09/30 07:04:29;;;;;;;15.82;8.63;;;;;;;14.16;53.54;100763.59;5054559;27;96767;-70
2022/09/30 07:06:55;;;;;;;27.17;9.20;;;;;;;14.52;53.03;100754.69;5054562;27;97456;-71
2022/09/30 07:09:22;;;;;;;58.95;11.00;;;;;;;14.31;53.13;100759.28;5053733;27;99318;-70
2022/09/30 07:11:48;;;;;;;30.85;10.07;;;;;;;14.63;52.37;100763.00;5053846;27;98934;-69
2022/09/30 07:14:15;;;;;;;39.90;9.88;;;;;;;14.71;52.39;100764.31;5054249;27;96674;-69
2022/09/30 07:16:43;;;;;;;30.55;11.02;;;;;;;14.74;52.23;100761.50;5054241;27;96928;-70
2022/09/30 07:19:13;;;;;;;30.63;9.80;;;;;;;14.72;52.26;100759.84;5053916;27;98896;-69
2022/09/30 07:21:39;;;;;;;27.92;9.80;;;;;;;14.90;52.00;100758.03;5051794;27;98962;-70
2022/09/30 07:24:09;;;;;;;62.88;19.40;;;;;;;15.12;51.53;100763.91;5052723;27;96823;-69
2022/09/30 07:26:39;;;;;;;30.65;9.88;;;;;;;14.80;52.24;100762.97;5053736;27;96839;-70
2022/09/30 07:29:06;;;;;;;33.40;11.68;;;;;;;15.52;50.58;100763.50;5053332;27;99502;-70
2022/09/30 07:31:33;;;;;;;20.17;9.55;;;;;;;15.34;50.73;100769.81;5053750;27;99186;-69
2022/09/30 07:34:01;;;;;;;43.78;9.82;;;;;;;15.45;50.74;100762.09;5053221;27;96815;-70
2022/09/30 07:36:30;;;;;;;41.25;10.75;;;;;;;15.52;50.69;100757.28;5053372;27;96809;-69
2022/09/30 07:39:04;;;;;;;15.48;9.02;;;;;;;15.82;50.00;100757.38;5053388;27;98888;-69
2022/09/30 07:41:30;;;;;;;18.60;9.95;;;;;;;15.83;50.24;100767.94;5053476;27;97635;-70
2022/09/30 07:43:58;;;;;;;16.80;9.70;;;;;;;15.89;50.24;100772.94;5051002;27;96772;-69
2022/09/30 07:46:28;;;;;;;25.48;10.10;;;;;;;15.86;50.27;100772.25;5053712;27;96784;-69
2022/09/30 07:48:59;;;;;;;15.40;9.32;;;;;;;16.11;49.59;100774.38;5053288;27;98942;-70
2022/09/30 07:51:29;;;;;;;14.43;9.38;;;;;;;15.84;50.31;100774.13;5053692;27;99610;-69
2022/09/30 07:54:00;;;;;;;14.05;10.18;;;;;;;16.11;49.87;100777.03;5053502;27;96995;-70
2022/09/30 07:56:27;;;;;;;13.90;10.00;;;;;;;16.58;48.55;100783.13;5053327;27;96770;-70
2022/09/30 07:58:58;;;;;;;19.50;11.05;;;;;;;16.50;48.98;100781.84;5052822;27;101360;-69
2022/09/30 08:01:25;;;;;;;21.63;10.80;;;;;;;16.86;48.56;100779.69;5050981;27;99285;-70
2022/09/30 08:03:54;;;;;;;14.27;10.20;;;;;;;17.00;47.93;100785.00;5038329;27;99185;-70
2022/09/30 08:06:22;;;;;;;14.18;9.77;;;;;;;17.08;47.86;100784.53;5049054;27;97327;-71
2022/09/30 08:08:53;;;;;;;17.13;10.65;;;;;;;17.03;47.71;100794.66;5049321;27;98808;-71
2022/09/30 08:11:21;;;;;;;14.68;10.77;;;;;;;16.82;48.03;100794.13;5047675;27;99114;-70
2022/09/30 08:13:51;;;;;;;15.57;10.48;;;;;;;17.05;47.90;100793.63;5051700;27;97393;-71
2022/09/30 08:16:18;;;;;;;18.52;12.38;;;;;;;17.06;47.46;100795.34;5050031;27;96821;-69
2022/09/30 08:18:44;;;;;;;19.88;12.65;;;;;;;16.88;47.95;100801.78;5050504;27;98196;-69
2022/09/30 08:21:14;;;;;;;16.70;10.90;;;;;;;17.23;47.39;100794.28;5046139;27;97898;-70
2022/09/30 08:23:41;;;;;;;17.08;10.48;;;;;;;17.56;47.28;100798.44;5050157;27;96981;-70
2022/09/30 08:26:09;;;;;;;19.45;11.63;;;;;;;18.28;45.28;100799.06;5050792;27;97076;-70
2022/09/30 08:28:39;;;;;;;17.08;11.05;;;;;;;18.40;44.67;100802.72;5051190;27;97829;-71
2022/09/30 08:31:07;;;;;;;20.92;11.48;;;;;;;18.40;44.86;100800.03;5049544;27;99548;-70
2022/09/30 08:33:34;;;;;;;19.55;11.48;;;;;;;18.22;45.28;100798.59;5050795;27;97737;-70
2022/09/30 08:36:06;;;;;;;15.38;11.15;;;;;;;18.27;45.45;100802.69;5049809;27;97390;-70
2022/09/30 08:38:32;;;;;;;15.05;11.70;;;;;;;18.27;45.52;100801.81;5049380;27;99088;-70
2022/09/30 08:41:11;;;;;;;18.60;10.80;;;;;;;18.32;45.41;100810.38;5049879;27;97881;-70
2022/09/30 08:43:52;;;;;;;18.92;10.68;;;;;;;18.38;45.19;100814.50;5050092;27;97302;-72
2022/09/30 08:46:32;;;;;;;15.35;10.98;;;;;;;18.50;44.75;100817.22;5045005;27;96770;-70
2022/09/30 08:49:05;;;;;;;15.68;10.93;;;;;;;18.52;44.22;100815.28;5053447;27;99428;-69
2022/09/30 08:51:35;;;;;;;18.50;11.38;;;;;;;18.64;44.38;100822.50;5049990;27;97698;-68
2022/09/30 08:54:06;;;;;;;14.18;9.98;;;;;;;18.52;44.36;100828.66;5050125;27;99113;-69
2022/09/30 08:56:34;;;;;;;12.95;10.07;;;;;;;18.35;44.40;100820.91;5048960;27;96874;-68
2022/09/30 08:59:08;;;;;;;14.48;9.95;;;;;;;18.50;44.25;100825.25;5046029;27;101101;-68
2022/09/30 09:01:38;;;;;;;13.50;9.80;;;;;;;18.30;45.12;100831.91;5048604;27;98931;-68
2022/09/30 09:04:08;;;;;;;18.13;11.05;;;;;;;18.73;44.13;100834.41;5046420;27;96818;-69
2022/09/30 09:06:45;;;;;;;15.38;9.98;;;;;;;18.89;43.71;100831.56;5050703;27;96868;-68
2022/09/30 09:09:34;;;;;;;14.68;9.82;;;;;;;18.74;43.67;100830.78;5051250;27;97675;-69
2022/09/30 09:12:09;;;;;;;13.15;9.00;;;;;;;18.96;43.75;100831.03;5047190;27;99161;-68
2022/09/30 09:14:55;;;;;;;17.90;9.20;;;;;;;18.91;42.70;100834.97;5045502;27;97654;-70
2022/09/30 09:17:35;;;;;;;24.45;11.60;;;;;;;19.13;42.63;100824.50;5050084;27;96732;-69
2022/09/30 09:20:12;;;;;;;16.83;9.55;;;;;;;19.27;42.26;100828.88;5049627;27;99220;-68
2022/09/30 09:22:39;;;;;;;17.67;8.95;;;;;;;19.31;42.20;100827.69;5044417;27;98952;-69
2022/09/30 09:25:10;;;;;;;11.05;8.18;;;;;;;19.25;41.74;100826.31;5049486;27;97063;-70
2022/09/30 09:27:45;;;;;;;22.77;9.10;;;;;;;19.18;41.41;100817.00;5050186;27;96938;-69
2022/09/30 09:30:15;;;;;;;15.93;8.77;;;;;;;19.34;41.65;100823.00;5050480;27;99183;-68
2022/09/30 09:32:42;;;;;;;38.95;10.20;;;;;;;19.03;41.97;100828.78;5048383;27;98966;-68
2022/09/30 09:35:14;;;;;;;11.23;7.82;;;;;;;18.94;41.86;100829.41;5049469;27;97236;-68
2022/09/30 09:40:43;;;;;;;10.88;7.38;;;;;;;19.26;41.99;100829.84;5047315;27;97202;-69
2022/09/30 09:43:23;;;;;;;12.32;8.70;;;;;;;19.51;41.18;100829.84;5045878;27;99155;-70
2022/09/30 09:46:00;;;;;;;14.40;8.43;;;;;;;19.64;41.22;100817.28;5048061;27;97091;-69
2022/09/30 09:48:28;;;;;;;10.00;7.90;;;;;;;19.85;41.34;100820.25;5048085;27;98124;-69
2022/09/30 09:51:03;;;;;;;12.75;7.40;;;;;;;20.14;40.19;100812.75;5046720;27;99211;-68
2022/09/30 09:53:48;;;;;;;11.07;7.82;;;;;;;20.12;40.24;100815.53;5049024;27;99096;-68
2022/09/30 09:56:20;;;;;;;11.40;6.70;;;;;;;20.18;40.29;100814.22;5049228;27;96880;-69
2022/09/30 09:59:07;;;;;;;9.32;6.93;;;;;;;20.18;39.01;100809.72;5052674;27;96911;-68
2022/09/30 10:01:37;;;;;;;10.55;7.45;;;;;;;20.19;39.88;100813.25;5049515;27;96967;-68
2022/09/30 10:04:10;;;;;;;10.30;6.72;;;;;;;20.29;39.52;100800.84;5052077;27;99580;-70
2022/09/30 10:06:44;;;;;;;7.88;5.90;;;;;;;19.99;40.01;100814.75;5050163;27;96936;-70
2022/09/30 10:09:22;;;;;;;10.35;6.88;;;;;;;19.93;39.47;100804.47;5053408;27;96871;-67
2022/09/30 10:11:49;;;;;;;10.18;6.13;;;;;;;20.01;39.77;100807.44;5050666;27;99011;-71
2022/09/30 10:14:20;;;;;;;9.57;6.28;;;;;;;20.02;39.12;100808.31;5047688;27;101755;-67
2022/09/30 10:16:49;;;;;;;7.15;5.72;;;;;;;19.89;39.10;100806.50;5050792;27;96978;-70
2022/09/30 10:19:21;;;;;;;6.28;5.68;;;;;;;19.85;39.35;100804.16;5052314;27;97016;-68
2022/09/30 10:21:47;;;;;;;8.30;5.70;;;;;;;19.92;39.66;100799.19;5052320;27;99014;-69
2022/09/30 10:24:28;;;;;;;8.30;5.75;;;;;;;20.03;39.88;100800.13;5050849;27;97813;-68
2022/09/30 10:26:54;;;;;;;8.50;5.80;;;;;;;19.80;39.27;100800.97;5051848;27;96769;-68
2022/09/30 10:29:27;;;;;;;10.30;6.03;;;;;;;19.80;39.08;100798.28;5047065;27;97271;-69
2022/09/30 10:32:25;;;;;;;7.05;5.10;;;;;;;19.84;39.69;100795.25;5046472;27;99086;-70
2022/09/30 10:34:56;;;;;;;7.20;5.10;;;;;;;19.86;39.88;100795.16;5051366;27;102189;-69
2022/09/30 10:37:27;;;;;;;8.13;5.43;;;;;;;19.91;38.99;100792.97;5051326;27;98091;-69
2022/09/30 10:40:00;;;;;;;7.93;5.10;;;;;;;20.05;39.50;100789.28;5051599;27;97189;-69
2022/09/30 10:42:29;;;;;;;10.23;5.47;;;;;;;20.22;38.91;100788.88;5042597;27;100929;-68
2022/09/30 10:45:00;;;;;;;9.13;5.22;;;;;;;20.45;38.68;100789.88;5049320;27;99238;-69
2022/09/30 10:47:30;;;;;;;5.03;4.43;;;;;;;20.57;38.53;100791.63;5048948;27;96864;-68
2022/09/30 10:50:04;;;;;;;7.15;3.50;;;;;;;20.33;37.42;100785.44;5053348;27;96808;-68
2022/09/30 10:52:32;;;;;;;6.15;3.00;;;;;;;20.25;37.16;100792.19;5051234;27;99443;-68
2022/09/30 10:55:00;;;;;;;7.63;4.10;;;;;;;20.58;37.32;100793.34;5049650;27;101656;-69
2022/09/30 10:57:29;;;;;;;5.30;3.72;;;;;;;20.59;37.10;100789.69;5051438;27;97159;-69
2022/09/30 11:00:00;;;;;;;7.53;3.92;;;;;;;20.50;37.13;100785.00;5049926;27;97083;-68
2022/09/30 11:02:36;;;;;;;5.00;4.10;;;;;;;20.45;37.43;100782.69;5048189;27;98869;-68
2022/09/30 11:05:16;;;;;;;8.02;4.20;;;;;;;20.54;37.48;100786.50;5044514;27;100644;-70
2022/09/30 11:07:49;;;;;;;5.88;4.05;;;;;;;20.68;38.18;100786.28;5050013;27;96851;-68
2022/09/30 11:10:31;;;;;;;8.85;5.15;;;;;;;20.52;37.25;100785.75;5046414;27;97250;-68
2022/09/30 11:13:06;;;;;;;5.72;4.38;;;;;;;20.44;37.22;100782.78;5050623;27;98951;-69
2022/09/30 11:15:40;;;;;;;5.68;4.50;;;;;;;20.62;37.05;100779.56;5052375;27;98774;-69
2022/09/30 11:18:16;;;;;;;8.55;4.00;;;;;;;20.89;36.40;100763.13;5051387;27;96844;-69
2022/09/30 11:20:45;;;;;;;;;;;;;;;20.61;37.15;100768.97;5049722;27;96689;-68
2022/09/30 11:23:20;;;;;;;6.65;3.40;;;;;;;20.66;36.79;100773.00;5050053;27;99032;-68
2022/09/30 11:25:55;;;;;;;6.72;3.20;;;;;;;20.42;37.09;100768.63;5049537;27;98909;-69
2022/09/30 11:28:37;;;;;;;4.88;3.50;;;;;;;20.50;37.39;100771.59;5048105;27;98679;-68
2022/09/30 11:31:12;;;;;;;4.53;3.33;;;;;;;20.68;37.87;100759.44;5050733;27;97363;-70
2022/09/30 11:34:04;;;;;;;5.97;3.63;;;;;;;20.73;37.19;100761.78;5051078;27;98882;-68
2022/09/30 11:36:37;;;;;;;5.05;3.50;;;;;;;20.66;37.81;100766.75;5044752;27;99430;-68
2022/09/30 11:39:27;;;;;;;3.00;2.70;;;;;;;20.72;36.47;100771.66;5050621;27;96818;-69
2022/09/30 11:42:02;;;;;;;4.45;2.90;;;;;;;20.41;36.15;100770.47;5046960;27;96872;-69